createdAt,value
2022-09-09T00:01:32.442Z,69.03
2022-09-09T00:04:05.580Z,69.06
2022-09-09T00:06:37.341Z,70.46
2022-09-09T00:09:14.047Z,70.72
2022-09-09T00:11:45.388Z,69.31
2022-09-09T00:14:25.316Z,68.63
2022-09-09T00:17:01.036Z,69.58
2022-09-09T00:19:41.085Z,69.39
2022-09-09T00:22:18.240Z,69.84
2022-09-09T00:24:47.993Z,68.86
2022-09-09T00:27:28.220Z,68.39
2022-09-09T00:29:59.708Z,68.15
2022-09-09T00:32:32.288Z,67.92
2022-09-09T00:35:14.239Z,67.89
2022-09-09T00:37:43.009Z,67.61
2022-09-09T00:40:24.355Z,67.41
2022-09-09T00:43:01.931Z,66.64
2022-09-09T00:45:53.207Z,66.63
2022-09-09T00:48:25.931Z,66.34
2022-09-09T00:50:59.368Z,66.30
2022-09-09T00:53:35.919Z,66.25
2022-09-09T00:56:13.695Z,65.88
2022-09-09T00:58:44.664Z,65.97
2022-09-09T01:01:14.452Z,66.68
2022-09-09T01:03:49.635Z,66.29
2022-09-09T01:06:24.678Z,65.97
2022-09-09T01:09:12.045Z,66.32
2022-09-09T01:11:53.926Z,65.86
2022-09-09T01:14:33.162Z,65.38
2022-09-09T01:17:06.494Z,65.29
2022-09-09T01:19:46.584Z,65.22
2022-09-09T01:22:28.297Z,65.21
2022-09-09T01:25:17.663Z,64.68
2022-09-09T01:28:10.876Z,65.12
2022-09-09T01:30:42.469Z,65.24
2022-09-09T01:33:16.957Z,65.04
2022-09-09T01:35:51.722Z,65.13
2022-09-09T01:38:20.631Z,65.60
2022-09-09T01:40:53.370Z,65.38
2022-09-09T01:43:28.548Z,67.13
2022-09-09T01:46:02.553Z,66.52
2022-09-09T01:48:32.338Z,66.32
2022-09-09T01:51:06.162Z,67.17
2022-09-09T01:53:33.937Z,66.00
2022-09-09T01:56:24.406Z,64.97
2022-09-09T01:59:10.360Z,64.23
2022-09-09T02:01:48.459Z,64.70
2022-09-09T02:04:31.195Z,65.45
2022-09-09T02:06:59.963Z,65.24
2022-09-09T02:09:32.587Z,64.41
2022-09-09T02:12:08.260Z,65.95
2022-09-09T02:14:51.226Z,65.50
2022-09-09T02:17:26.872Z,65.36
2022-09-09T02:20:07.171Z,64.60
2022-09-09T02:22:46.634Z,65.20
2022-09-09T02:25:19.819Z,66.86
2022-09-09T02:27:51.919Z,67.53
2022-09-09T02:30:22.256Z,67.18
2022-09-09T02:32:59.024Z,67.25
2022-09-09T02:35:40.635Z,66.57
2022-09-09T02:38:14.213Z,66.43
2022-09-09T02:40:46.694Z,66.24
2022-09-09T02:43:17.297Z,68.72
2022-09-09T02:45:55.224Z,70.57
2022-09-09T02:48:32.265Z,70.62
2022-09-09T02:51:08.089Z,69.75
2022-09-09T02:53:48.885Z,69.99
2022-09-09T02:56:19.179Z,71.50
2022-09-09T02:58:50.393Z,70.09
2022-09-09T03:01:19.681Z,72.25
2022-09-09T03:03:47.536Z,70.82
2022-09-09T03:06:17.803Z,70.00
2022-09-09T03:08:50.846Z,69.71
2022-09-09T03:11:23.820Z,69.36
2022-09-09T03:13:51.693Z,69.02
2022-09-09T03:16:23.860Z,69.03
2022-09-09T03:18:54.079Z,69.01
2022-09-09T03:21:22.278Z,70.25
2022-09-09T03:23:50.856Z,69.91
2022-09-09T03:26:18.760Z,69.68
2022-09-09T03:28:48.446Z,69.71
2022-09-09T03:31:20.765Z,70.01
2022-09-09T03:33:50.112Z,69.79
2022-09-09T03:36:20.194Z,70.09
2022-09-09T03:38:47.934Z,69.88
2022-09-09T03:41:15.758Z,71.32
2022-09-09T03:43:44.181Z,71.52
2022-09-09T03:46:12.052Z,72.67
2022-09-09T03:48:40.443Z,75.20
2022-09-09T03:51:09.602Z,75.63
2022-09-09T03:53:39.005Z,76.27
2022-09-09T03:56:08.622Z,73.85
2022-09-09T03:58:37.728Z,73.75
2022-09-09T04:01:10.605Z,73.49
2022-09-09T04:03:39.880Z,72.20
2022-09-09T04:06:12.814Z,71.11
2022-09-09T04:08:41.150Z,71.07
2022-09-09T04:11:09.660Z,70.73
2022-09-09T04:13:40.778Z,70.79
2022-09-09T04:16:14.064Z,71.10
2022-09-09T04:18:43.106Z,73.11
2022-09-09T04:21:13.040Z,71.98
2022-09-09T04:23:41.677Z,71.06
2022-09-09T04:26:10.989Z,71.27
2022-09-09T04:28:40.472Z,70.94
2022-09-09T04:31:19.646Z,71.02
2022-09-09T04:33:49.298Z,71.05
2022-09-09T04:36:20.276Z,71.27
2022-09-09T04:38:50.508Z,72.23
2022-09-09T04:41:18.894Z,71.95
2022-09-09T04:43:49.933Z,70.87
2022-09-09T04:46:18.883Z,70.06
2022-09-09T04:48:50.385Z,69.83
2022-09-09T04:51:20.668Z,70.46
2022-09-09T04:53:51.748Z,70.70
2022-09-09T04:56:20.422Z,69.68
2022-09-09T04:58:57.649Z,69.46
2022-09-09T05:01:35.187Z,69.33
2022-09-09T05:04:05.406Z,69.60
2022-09-09T05:06:37.239Z,69.39
2022-09-09T05:09:06.105Z,69.18
2022-09-09T05:11:37.678Z,69.11
2022-09-09T05:14:18.537Z,68.76
2022-09-09T05:16:48.072Z,68.22
2022-09-09T05:19:16.101Z,68.08
2022-09-09T05:21:48.311Z,68.10
2022-09-09T05:24:19.632Z,67.58
2022-09-09T05:26:49.535Z,66.86
2022-09-09T05:29:19.568Z,68.75
2022-09-09T05:31:48.109Z,69.85
2022-09-09T05:34:20.550Z,68.49
2022-09-09T05:36:49.955Z,68.30
2022-09-09T05:39:18.118Z,68.08
2022-09-09T05:41:46.099Z,68.66
2022-09-09T05:44:14.440Z,68.77
2022-09-09T05:46:42.427Z,69.31
2022-09-09T05:49:10.906Z,68.70
2022-09-09T05:51:40.541Z,67.76
2022-09-09T05:54:16.492Z,67.63
2022-09-09T05:56:51.839Z,67.51
2022-09-09T05:59:21.042Z,66.92
2022-09-09T06:01:49.695Z,66.84
2022-09-09T06:04:33.228Z,67.39
2022-09-09T06:07:02.895Z,68.99
2022-09-09T06:09:33.385Z,70.08
2022-09-09T06:12:01.408Z,69.25
2022-09-09T06:14:29.437Z,68.94
2022-09-09T06:17:00.752Z,67.50
2022-09-09T06:19:32.494Z,67.02
2022-09-09T06:22:01.721Z,68.00
2022-09-09T06:24:36.863Z,67.22
2022-09-09T06:27:06.512Z,67.50
2022-09-09T06:29:36.795Z,66.98
2022-09-09T06:32:05.918Z,66.67
2022-09-09T06:34:34.030Z,66.26
2022-09-09T06:37:02.299Z,66.10
2022-09-09T06:39:45.913Z,65.93
2022-09-09T06:42:13.719Z,65.89
2022-09-09T06:44:57.999Z,65.66
2022-09-09T06:47:36.552Z,65.23
2022-09-09T06:50:08.389Z,64.17
2022-09-09T06:52:37.221Z,64.42
2022-09-09T06:55:09.292Z,64.47
2022-09-09T06:57:40.182Z,64.68
2022-09-09T07:00:15.360Z,64.65
2022-09-09T07:02:43.362Z,64.15
2022-09-09T07:05:12.685Z,62.92
2022-09-09T07:07:42.809Z,62.88
2022-09-09T07:10:13.905Z,63.23
2022-09-09T07:12:41.720Z,63.43
2022-09-09T07:15:12.346Z,63.10
2022-09-09T07:17:44.232Z,63.09
2022-09-09T07:20:12.506Z,62.53
2022-09-09T07:22:42.949Z,62.03
2022-09-09T07:25:12.413Z,62.07
2022-09-09T07:27:41.653Z,61.69
2022-09-09T07:30:10.968Z,61.17
2022-09-09T07:32:40.737Z,61.30
2022-09-09T07:35:09.193Z,62.11
2022-09-09T07:37:38.716Z,61.88
2022-09-09T07:40:07.663Z,61.13
2022-09-09T07:42:36.411Z,59.50
2022-09-09T07:45:10.518Z,59.94
2022-09-09T07:47:38.607Z,59.55
2022-09-09T07:50:07.133Z,60.29
2022-09-09T07:52:36.112Z,58.96
2022-09-09T07:55:07.446Z,59.18
2022-09-09T07:57:35.317Z,58.92
2022-09-09T08:00:05.992Z,56.52
2022-09-09T08:02:41.537Z,54.47
2022-09-09T08:05:13.599Z,53.92
2022-09-09T08:07:41.982Z,53.31
2022-09-09T08:10:10.211Z,52.15
2022-09-09T08:12:47.708Z,51.38
2022-09-09T08:15:24.450Z,50.56
2022-09-09T08:17:53.605Z,50.84
2022-09-09T08:20:21.365Z,49.84
2022-09-09T08:22:50.844Z,49.01
2022-09-09T08:25:18.705Z,49.14
2022-09-09T08:27:46.660Z,49.51
2022-09-09T08:30:15.062Z,47.18
2022-09-09T08:32:45.934Z,47.22
2022-09-09T08:35:15.941Z,47.93
2022-09-09T08:37:43.797Z,49.21
2022-09-09T08:40:24.154Z,50.49
2022-09-09T08:42:58.073Z,51.43
2022-09-09T08:45:40.238Z,50.60
2022-09-09T08:48:19.979Z,49.98
2022-09-09T08:50:53.027Z,48.90
2022-09-09T08:53:31.336Z,49.83
2022-09-09T08:56:05.499Z,49.87
2022-09-09T08:58:49.791Z,47.59
2022-09-09T09:01:40.525Z,46.74
2022-09-09T09:04:22.724Z,47.54
2022-09-09T09:07:03.557Z,47.65
2022-09-09T09:09:46.246Z,45.46
2022-09-09T09:12:20.429Z,45.89
2022-09-09T09:14:49.938Z,44.90
2022-09-09T09:17:21.454Z,44.22
2022-09-09T09:19:51.633Z,44.36
2022-09-09T09:22:23.249Z,44.68
2022-09-09T09:24:57.796Z,46.95
2022-09-09T09:27:34.066Z,48.78
2022-09-09T09:30:26.811Z,48.77
2022-09-09T09:33:03.257Z,48.34
2022-09-09T09:35:31.799Z,50.42
2022-09-09T09:40:53.935Z,50.71
2022-09-09T09:43:26.271Z,52.23
2022-09-09T09:46:14.360Z,50.12
2022-09-09T09:48:42.087Z,47.66
2022-09-09T09:51:16.487Z,46.33
2022-09-09T09:53:47.313Z,45.58
2022-09-09T09:56:17.174Z,44.97
2022-09-09T09:58:52.520Z,46.03
2022-09-09T10:01:28.677Z,44.45
2022-09-09T10:04:00.989Z,43.74
2022-09-09T10:06:34.048Z,43.36
2022-09-09T10:09:05.382Z,42.96
2022-09-09T10:11:46.674Z,42.30
2022-09-09T10:14:22.720Z,42.92
2022-09-09T10:17:04.061Z,43.17
2022-09-09T10:19:34.571Z,43.15
2022-09-09T10:22:18.384Z,44.58
2022-09-09T10:25:08.853Z,43.19
2022-09-09T10:27:47.934Z,42.50
2022-09-09T10:30:20.418Z,42.09
2022-09-09T10:32:53.037Z,41.52
2022-09-09T10:35:29.255Z,42.77
2022-09-09T10:38:14.789Z,41.65
2022-09-09T10:41:03.527Z,42.78
2022-09-09T10:43:56.356Z,43.52
2022-09-09T10:46:36.974Z,42.71
2022-09-09T10:49:22.996Z,41.33
2022-09-09T10:51:59.929Z,42.00
2022-09-09T10:54:52.609Z,42.70
2022-09-09T10:57:31.257Z,41.49
2022-09-09T11:00:05.295Z,42.95
2022-09-09T11:02:35.508Z,41.72
2022-09-09T11:05:10.821Z,41.74
2022-09-09T11:07:44.141Z,40.97
2022-09-09T11:10:25.239Z,42.90
2022-09-09T11:13:00.103Z,44.84
2022-09-09T11:15:33.615Z,46.59
2022-09-09T11:18:03.821Z,46.31
2022-09-09T11:20:33.131Z,46.19
2022-09-09T11:23:06.265Z,47.36
2022-09-09T11:25:39.097Z,49.29
2022-09-09T11:28:32.107Z,49.70
2022-09-09T11:31:23.535Z,51.53
2022-09-09T11:34:05.263Z,52.13
2022-09-09T11:36:49.387Z,51.88
2022-09-09T11:39:38.493Z,52.45
2022-09-09T11:42:17.668Z,51.95
2022-09-09T11:44:47.263Z,49.77
2022-09-09T11:47:25.507Z,49.49
2022-09-09T11:49:54.609Z,49.90
2022-09-09T11:52:26.604Z,50.12
2022-09-09T11:54:57.340Z,50.85
2022-09-09T11:57:32.834Z,51.11
2022-09-09T12:00:02.040Z,51.85
2022-09-09T12:02:50.561Z,50.00
2022-09-09T12:05:20.860Z,49.39
2022-09-09T12:07:55.639Z,49.26
2022-09-09T12:10:28.859Z,48.85
2022-09-09T12:12:56.704Z,49.02
2022-09-09T12:15:30.221Z,48.12
2022-09-09T12:18:03.844Z,48.88
2022-09-09T12:20:37.422Z,47.06
2022-09-09T12:23:26.086Z,46.05
2022-09-09T12:26:06.638Z,45.92
2022-09-09T12:28:49.913Z,44.50
2022-09-09T12:31:26.877Z,45.02
2022-09-09T12:33:54.649Z,44.97
2022-09-09T12:36:26.915Z,44.77
2022-09-09T12:38:55.711Z,43.18
2022-09-09T12:41:26.274Z,42.18
2022-09-09T12:44:06.903Z,42.20
2022-09-09T12:46:38.559Z,42.53
2022-09-09T12:49:07.534Z,41.71
2022-09-09T12:51:36.110Z,42.72
2022-09-09T12:54:05.234Z,43.31
2022-09-09T12:56:35.099Z,42.40
2022-09-09T12:59:03.180Z,42.57
2022-09-09T13:01:33.272Z,42.70
2022-09-09T13:04:02.779Z,41.74
2022-09-09T13:06:32.291Z,40.54
2022-09-09T13:09:01.518Z,41.52
2022-09-09T13:11:34.034Z,41.19
2022-09-09T13:14:02.014Z,42.06
2022-09-09T13:16:32.862Z,42.09
2022-09-09T13:19:08.978Z,43.22
2022-09-09T13:21:41.287Z,43.35
2022-09-09T13:24:28.397Z,43.71
2022-09-09T13:26:58.429Z,43.28
2022-09-09T13:29:26.730Z,43.44
2022-09-09T13:31:56.672Z,43.22
2022-09-09T13:34:31.937Z,42.57
2022-09-09T13:37:03.577Z,42.83
2022-09-09T13:39:31.709Z,42.60
2022-09-09T13:41:59.814Z,43.71
2022-09-09T13:44:31.037Z,42.71
2022-09-09T13:47:09.412Z,42.98
2022-09-09T13:49:39.541Z,42.46
2022-09-09T13:52:12.065Z,42.81
2022-09-09T13:54:40.254Z,42.89
2022-09-09T13:57:15.944Z,43.15
2022-09-09T14:00:01.620Z,42.49
2022-09-09T14:02:32.086Z,42.95
2022-09-09T14:05:03.815Z,41.10
2022-09-09T14:07:31.668Z,39.61
2022-09-09T14:10:01.090Z,40.42
2022-09-09T14:12:29.087Z,41.15
2022-09-09T14:15:00.648Z,40.38
2022-09-09T14:17:32.138Z,39.68
2022-09-09T14:20:00.249Z,40.53
2022-09-09T14:22:29.477Z,40.43
2022-09-09T14:24:58.538Z,40.67
2022-09-09T14:27:26.886Z,40.51
2022-09-09T14:29:55.440Z,40.95
2022-09-09T14:32:23.244Z,40.34
2022-09-09T14:34:51.549Z,39.88
2022-09-09T14:37:20.095Z,40.71
2022-09-09T14:39:52.393Z,40.10
2022-09-09T14:42:20.890Z,40.49
2022-09-09T14:44:48.798Z,40.17
2022-09-09T14:47:16.541Z,40.85
2022-09-09T14:49:46.577Z,40.26
2022-09-09T14:52:17.580Z,40.02
2022-09-09T14:54:45.426Z,39.97
2022-09-09T14:57:14.850Z,40.21
2022-09-09T14:59:42.624Z,40.02
2022-09-09T15:02:11.415Z,39.71
2022-09-09T15:04:39.294Z,39.95
2022-09-09T15:07:07.157Z,40.07
2022-09-09T15:09:38.243Z,40.41
2022-09-09T15:12:06.644Z,40.19
2022-09-09T15:14:36.173Z,41.25
2022-09-09T15:17:04.009Z,40.09
2022-09-09T15:19:33.342Z,39.55
2022-09-09T15:22:01.434Z,39.88
2022-09-09T15:24:29.653Z,41.54
2022-09-09T15:26:57.583Z,40.46
2022-09-09T15:29:25.420Z,40.70
2022-09-09T15:31:55.350Z,40.74
2022-09-09T15:34:26.420Z,40.81
2022-09-09T15:36:56.304Z,40.37
2022-09-09T15:39:24.213Z,40.11
2022-09-09T15:41:52.133Z,40.62
2022-09-09T15:44:20.823Z,40.24
2022-09-09T15:46:52.320Z,40.25
2022-09-09T15:49:24.221Z,40.79
2022-09-09T15:51:54.346Z,40.77
2022-09-09T15:54:24.770Z,41.62
2022-09-09T15:56:55.814Z,41.92
2022-09-09T15:59:26.674Z,41.67
2022-09-09T16:01:55.457Z,42.03
2022-09-09T16:04:26.290Z,43.46
2022-09-09T16:06:55.638Z,42.33
2022-09-09T16:09:23.777Z,42.96
2022-09-09T16:11:52.905Z,42.23
2022-09-09T16:14:20.976Z,43.39
2022-09-09T16:16:49.225Z,43.27
2022-09-09T16:19:19.763Z,43.84
2022-09-09T16:21:50.531Z,43.54
2022-09-09T16:24:20.390Z,44.01
2022-09-09T16:26:50.050Z,44.22
2022-09-09T16:29:19.425Z,45.55
2022-09-09T16:31:49.201Z,44.88
2022-09-09T16:34:18.318Z,44.87
2022-09-09T16:36:47.164Z,45.91
2022-09-09T16:39:17.533Z,46.48
2022-09-09T16:41:46.968Z,47.71
2022-09-09T16:44:16.560Z,47.68
2022-09-09T16:46:45.520Z,47.92
2022-09-09T16:49:15.718Z,47.58
2022-09-09T16:51:45.658Z,47.86
2022-09-09T16:54:14.827Z,48.35
2022-09-09T16:56:46.168Z,50.99
2022-09-09T16:59:17.825Z,53.50
2022-09-09T17:01:47.829Z,54.01
2022-09-09T17:04:22.124Z,53.86
2022-09-09T17:06:51.972Z,54.21
2022-09-09T17:09:21.135Z,56.44
2022-09-09T17:11:51.740Z,55.29
2022-09-09T17:14:22.997Z,54.68
2022-09-09T17:16:52.131Z,55.22
2022-09-09T17:19:21.936Z,54.43
2022-09-09T17:22:14.872Z,56.08
2022-09-09T17:24:41.309Z,55.38
2022-09-09T17:27:11.033Z,55.47
2022-09-09T17:29:42.493Z,56.17
2022-09-09T17:32:11.215Z,57.48
2022-09-09T17:34:42.860Z,56.96
2022-09-09T17:37:12.345Z,57.54
2022-09-09T17:39:40.190Z,57.56
2022-09-09T17:42:08.768Z,58.34
2022-09-09T17:44:38.112Z,59.08
2022-09-09T17:47:07.085Z,59.75
2022-09-09T17:49:34.940Z,60.14
2022-09-09T17:52:02.918Z,59.67
2022-09-09T17:54:30.774Z,59.05
2022-09-09T17:57:00.321Z,59.15
2022-09-09T17:59:30.196Z,58.75
2022-09-09T18:01:59.473Z,58.49
2022-09-09T18:04:27.383Z,58.95
2022-09-09T18:06:58.266Z,58.92
2022-09-09T18:09:29.246Z,58.83
2022-09-09T18:11:59.041Z,59.08
2022-09-09T18:14:30.121Z,59.84
2022-09-09T18:17:00.147Z,60.74
2022-09-09T18:19:30.674Z,60.82
2022-09-09T18:22:01.774Z,60.89
2022-09-09T18:24:30.859Z,59.52
2022-09-09T18:26:58.787Z,60.83
2022-09-09T18:29:26.890Z,60.51
2022-09-09T18:31:55.995Z,59.68
2022-09-09T18:34:28.514Z,60.63
2022-09-09T18:36:56.854Z,63.47
2022-09-09T18:39:27.655Z,62.09
2022-09-09T18:41:56.733Z,63.13
2022-09-09T18:44:27.133Z,63.84
2022-09-09T18:46:55.659Z,63.79
2022-09-09T18:49:25.571Z,63.41
2022-09-09T18:51:54.161Z,65.35
2022-09-09T18:54:23.901Z,65.51
2022-09-09T18:56:52.912Z,65.32
2022-09-09T18:59:23.693Z,65.73
2022-09-09T19:01:53.206Z,65.99
2022-09-09T19:04:22.246Z,65.69
2022-09-09T19:06:57.640Z,67.14
2022-09-09T19:09:27.574Z,66.20
2022-09-09T19:11:55.451Z,67.42
2022-09-09T19:14:23.558Z,68.68
2022-09-09T19:16:51.683Z,69.71
2022-09-09T19:19:21.485Z,69.63
2022-09-09T19:21:51.540Z,69.70
2022-09-09T19:24:21.365Z,69.54
2022-09-09T19:26:55.189Z,70.04
2022-09-09T19:29:25.935Z,68.59
2022-09-09T19:34:45.701Z,69.86
2022-09-09T19:37:18.525Z,70.04
2022-09-09T19:39:50.842Z,68.46
2022-09-09T19:42:19.235Z,68.28
2022-09-09T19:45:48.837Z,67.96
2022-09-09T19:48:16.897Z,68.19
2022-09-09T19:50:47.600Z,68.97
2022-09-09T19:53:17.917Z,68.92
2022-09-09T19:55:46.182Z,70.33
2022-09-09T19:58:15.027Z,72.36
2022-09-09T20:00:58.508Z,71.04
2022-09-09T20:03:28.280Z,69.96
2022-09-09T20:05:57.063Z,68.73
2022-09-09T20:08:27.338Z,69.43
2022-09-09T20:10:56.285Z,68.70
2022-09-09T20:13:24.371Z,68.34
2022-09-09T20:15:58.648Z,69.72
2022-09-09T20:18:32.254Z,69.99
2022-09-09T20:21:01.013Z,69.23
2022-09-09T20:23:32.283Z,68.01
2022-09-09T20:26:02.996Z,68.13
2022-09-09T20:28:31.261Z,68.07
2022-09-09T20:31:05.824Z,68.18
2022-09-09T20:33:35.823Z,69.01
2022-09-09T20:36:11.504Z,69.42
2022-09-09T20:38:54.179Z,69.80
2022-09-09T20:41:23.666Z,69.27
2022-09-09T20:43:53.542Z,68.48
2022-09-09T20:46:49.109Z,67.94
2022-09-09T20:49:25.628Z,67.95
2022-09-09T20:52:09.429Z,67.59
2022-09-09T20:54:48.578Z,67.33
2022-09-09T20:57:22.074Z,67.65
2022-09-09T20:59:51.052Z,68.70
2022-09-09T21:02:19.418Z,68.15
2022-09-09T21:04:47.356Z,67.45
2022-09-09T21:07:15.292Z,67.61
2022-09-09T21:09:43.135Z,67.28
2022-09-09T21:12:12.301Z,66.74
2022-09-09T21:14:40.219Z,66.61
2022-09-09T21:17:08.394Z,66.29
2022-09-09T21:19:36.288Z,65.65
2022-09-09T21:22:04.507Z,65.78
2022-09-09T21:24:32.290Z,66.20
2022-09-09T21:27:00.700Z,65.83
2022-09-09T21:29:29.993Z,66.19
2022-09-09T21:32:03.805Z,66.34
2022-09-09T21:34:32.086Z,67.83
2022-09-09T21:37:00.203Z,67.27
2022-09-09T21:39:28.066Z,67.23
2022-09-09T21:41:58.150Z,67.04
2022-09-09T21:44:26.911Z,68.70
2022-09-09T21:46:56.183Z,69.60
2022-09-09T21:49:24.011Z,69.87
2022-09-09T21:51:52.326Z,68.08
2022-09-09T21:54:20.629Z,69.24
2022-09-09T21:56:52.251Z,69.67
2022-09-09T21:59:20.450Z,68.84
2022-09-09T22:01:48.702Z,68.82
2022-09-09T22:04:17.938Z,68.46
2022-09-09T22:06:46.607Z,68.70
2022-09-09T22:09:14.448Z,67.79
2022-09-09T22:11:42.614Z,68.88
2022-09-09T22:14:10.515Z,67.14
2022-09-09T22:16:45.753Z,66.74
2022-09-09T22:19:13.995Z,66.22
2022-09-09T22:21:45.481Z,66.02
2022-09-09T22:24:13.598Z,66.66
2022-09-09T22:26:42.409Z,66.04
2022-09-09T22:29:11.385Z,66.15
2022-09-09T22:31:39.486Z,66.55
2022-09-09T22:34:09.170Z,66.29
2022-09-09T22:36:42.118Z,66.02
2022-09-09T22:39:13.928Z,65.88
2022-09-09T22:41:42.650Z,66.73
2022-09-09T22:44:11.128Z,67.21
2022-09-09T22:46:39.851Z,66.55
2022-09-09T22:49:10.892Z,66.10
2022-09-09T22:51:38.869Z,66.74
2022-09-09T22:54:08.034Z,66.35
2022-09-09T22:56:37.589Z,67.11
2022-09-09T22:59:05.843Z,66.50
2022-09-09T23:01:35.169Z,67.93
2022-09-09T23:04:03.368Z,67.04
2022-09-09T23:06:33.894Z,67.27
2022-09-09T23:09:03.721Z,68.18
2022-09-09T23:11:34.266Z,71.24
2022-09-09T23:14:05.439Z,71.63
2022-09-09T23:16:36.069Z,71.39
2022-09-09T23:19:03.965Z,73.00
2022-09-09T23:21:33.120Z,72.28
2022-09-09T23:24:01.736Z,76.91
2022-09-09T23:26:29.788Z,77.28
2022-09-09T23:28:59.201Z,76.66
2022-09-09T23:31:30.136Z,76.58
2022-09-09T23:33:59.095Z,77.39
2022-09-09T23:36:29.445Z,77.97
2022-09-09T23:38:58.367Z,78.21
2022-09-09T23:41:26.960Z,79.15
2022-09-09T23:43:55.327Z,78.05
2022-09-09T23:46:25.167Z,78.41
2022-09-09T23:48:57.817Z,77.64
2022-09-09T23:51:28.127Z,77.32
2022-09-09T23:53:57.541Z,78.05
2022-09-09T23:56:28.141Z,79.46
2022-09-09T23:58:56.415Z,79.30
